createdAt,value
2022-08-19T00:01:15.348Z,22.95
2022-08-19T00:04:57.407Z,22.95
2022-08-19T00:08:27.020Z,22.91
2022-08-19T00:11:56.752Z,22.86
2022-08-19T00:15:24.715Z,22.82
2022-08-19T00:18:52.919Z,22.75
2022-08-19T00:22:21.212Z,22.68
2022-08-19T00:25:48.785Z,22.64
2022-08-19T00:29:18.696Z,22.62
2022-08-19T00:32:45.618Z,22.60
2022-08-19T00:36:14.663Z,22.60
2022-08-19T00:39:41.831Z,22.60
2022-08-19T00:43:14.559Z,22.61
2022-08-19T00:46:44.120Z,22.60
2022-08-19T00:50:15.175Z,22.59
2022-08-19T00:53:44.740Z,22.57
2022-08-19T00:57:14.751Z,22.55
2022-08-19T01:00:41.949Z,22.52
2022-08-19T01:04:09.732Z,22.47
2022-08-19T01:07:38.556Z,22.42
2022-08-19T01:11:06.194Z,22.37
2022-08-19T01:14:39.485Z,22.31
2022-08-19T01:18:13.364Z,22.27
2022-08-19T01:21:44.508Z,22.20
2022-08-19T01:25:18.935Z,22.16
2022-08-19T01:28:48.591Z,22.16
2022-08-19T01:32:32.006Z,22.18
2022-08-19T01:36:08.487Z,22.20
2022-08-19T01:39:35.458Z,22.23
2022-08-19T01:43:04.290Z,22.24
2022-08-19T01:46:31.633Z,22.26
2022-08-19T01:50:00.582Z,22.30
2022-08-19T01:53:33.662Z,22.33
2022-08-19T01:57:06.563Z,22.34
2022-08-19T02:00:35.268Z,22.36
2022-08-19T02:04:02.315Z,22.37
2022-08-19T02:07:30.463Z,22.35
2022-08-19T02:10:58.071Z,22.34
2022-08-19T02:14:24.912Z,22.31
2022-08-19T02:17:52.840Z,22.28
2022-08-19T02:21:21.796Z,22.23
2022-08-19T02:24:49.209Z,22.21
2022-08-19T02:28:18.713Z,22.17
2022-08-19T02:31:46.130Z,22.17
2022-08-19T02:35:14.440Z,22.17
2022-08-19T02:38:41.888Z,22.18
2022-08-19T02:42:10.234Z,22.19
2022-08-19T02:45:40.543Z,22.19
2022-08-19T02:49:10.726Z,22.18
2022-08-19T02:52:38.404Z,22.18
2022-08-19T02:56:08.894Z,22.19
2022-08-19T02:59:36.969Z,22.17
2022-08-19T03:03:04.439Z,22.14
2022-08-19T03:06:31.746Z,22.12
2022-08-19T03:09:59.116Z,22.10
2022-08-19T03:13:26.616Z,22.07
2022-08-19T03:16:55.717Z,22.05
2022-08-19T03:20:23.048Z,22.04
2022-08-19T03:23:51.285Z,22.02
2022-08-19T03:27:18.885Z,22.02
2022-08-19T03:30:58.185Z,22.04
2022-08-19T03:34:31.889Z,22.06
2022-08-19T03:38:00.673Z,22.07
2022-08-19T03:41:34.222Z,22.10
2022-08-19T03:45:13.337Z,22.14
2022-08-19T03:48:41.884Z,22.17
2022-08-19T03:52:09.329Z,22.21
2022-08-19T03:55:36.532Z,22.25
2022-08-19T03:59:04.318Z,22.28
2022-08-19T04:02:31.754Z,22.29
2022-08-19T04:05:58.866Z,22.29
2022-08-19T04:09:25.935Z,22.28
2022-08-19T04:12:53.074Z,22.28
2022-08-19T04:16:21.161Z,22.27
2022-08-19T04:19:56.169Z,22.25
2022-08-19T04:23:23.109Z,22.24
2022-08-19T04:26:50.848Z,22.24
2022-08-19T04:30:20.500Z,22.26
2022-08-19T04:33:47.070Z,22.28
2022-08-19T04:37:15.325Z,22.32
2022-08-19T04:41:10.347Z,22.36
2022-08-19T04:44:46.425Z,22.42
2022-08-19T04:48:26.894Z,22.47
2022-08-19T04:51:57.107Z,22.56
2022-08-19T04:55:26.889Z,22.61
2022-08-19T04:58:55.254Z,22.64
2022-08-19T05:02:26.837Z,22.65
2022-08-19T05:05:54.458Z,22.63
2022-08-19T05:09:22.993Z,22.62
2022-08-19T05:12:49.988Z,22.60
2022-08-19T05:16:18.718Z,22.62
2022-08-19T05:20:02.994Z,22.63
2022-08-19T05:23:31.858Z,22.65
2022-08-19T05:27:00.295Z,22.69
2022-08-19T05:30:46.168Z,22.77
2022-08-19T05:34:20.096Z,22.84
2022-08-19T05:37:47.453Z,22.90
2022-08-19T05:41:18.003Z,23.00
2022-08-19T05:44:46.794Z,23.09
2022-08-19T05:48:14.034Z,23.18
2022-08-19T05:51:41.123Z,23.26
2022-08-19T05:55:10.598Z,23.35
2022-08-19T05:58:38.389Z,23.44
2022-08-19T06:02:07.744Z,23.51
2022-08-19T06:05:39.109Z,23.56
2022-08-19T06:09:16.494Z,23.62
2022-08-19T06:12:43.198Z,23.68
2022-08-19T06:16:10.601Z,23.75
2022-08-19T06:19:40.872Z,23.84
2022-08-19T06:23:11.017Z,23.94
2022-08-19T06:30:19.456Z,24.12
2022-08-19T06:33:47.487Z,24.22
2022-08-19T06:37:20.272Z,24.32
2022-08-19T06:40:47.539Z,24.42
2022-08-19T06:44:15.163Z,24.52
2022-08-19T06:47:47.374Z,24.60
2022-08-19T06:51:19.932Z,24.65
2022-08-19T06:54:55.429Z,24.72
2022-08-19T06:58:24.183Z,24.78
2022-08-19T07:02:04.363Z,24.86
2022-08-19T07:05:31.891Z,24.94
2022-08-19T07:09:00.535Z,25.03
2022-08-19T07:12:30.932Z,25.11
2022-08-19T07:15:58.139Z,25.17
2022-08-19T07:19:33.059Z,25.27
2022-08-19T07:23:01.709Z,25.40
2022-08-19T07:26:42.578Z,25.54
2022-08-19T07:30:14.605Z,25.67
2022-08-19T07:33:43.525Z,25.75
2022-08-19T07:37:12.509Z,25.81
2022-08-19T07:40:40.498Z,25.88
2022-08-19T07:44:10.814Z,25.96
2022-08-19T07:47:47.427Z,26.07
2022-08-19T07:51:35.902Z,26.18
2022-08-19T07:55:05.372Z,26.26
2022-08-19T07:58:33.169Z,26.33
2022-08-19T10:37:14.656Z,30.99
2022-08-19T10:40:43.075Z,31.19
2022-08-19T10:44:12.304Z,31.33
2022-08-19T10:47:41.424Z,31.43
2022-08-19T10:51:26.458Z,31.54
2022-08-19T10:55:11.806Z,31.66
2022-08-19T10:58:40.105Z,31.68
2022-08-19T11:02:13.399Z,31.66
2022-08-19T11:05:40.748Z,31.66
2022-08-19T11:09:08.572Z,31.60
2022-08-19T11:12:36.032Z,31.68
2022-08-19T11:16:07.919Z,31.83
2022-08-19T11:19:59.518Z,31.99
2022-08-19T11:23:29.085Z,32.13
2022-08-19T11:27:03.905Z,32.28
2022-08-19T11:30:30.773Z,32.43
2022-08-19T11:33:58.244Z,32.56
2022-08-19T11:37:25.717Z,32.69
2022-08-19T11:41:00.823Z,32.74
2022-08-19T11:44:34.673Z,32.83
2022-08-19T11:48:04.795Z,32.95
2022-08-19T11:51:32.595Z,33.05
2022-08-19T11:55:00.281Z,33.18
2022-08-19T11:58:27.353Z,33.31
2022-08-19T12:01:55.101Z,33.42
2022-08-19T12:05:22.362Z,33.50
2022-08-19T12:08:49.889Z,33.68
2022-08-19T12:12:16.906Z,33.86
2022-08-19T12:15:46.176Z,34.07
2022-08-19T12:19:13.935Z,34.29
2022-08-19T12:22:49.878Z,34.44
2022-08-19T12:26:19.915Z,34.58
2022-08-19T12:29:46.552Z,34.77
2022-08-19T12:33:14.900Z,34.99
2022-08-19T12:36:41.867Z,35.21
2022-08-19T12:40:13.012Z,35.48
2022-08-19T12:43:40.913Z,35.71
2022-08-19T12:47:09.035Z,35.91
2022-08-19T12:50:37.174Z,36.11
2022-08-19T12:54:05.155Z,36.26
2022-08-19T12:57:33.470Z,36.27
2022-08-19T13:01:00.275Z,36.36
2022-08-19T13:04:27.544Z,36.33
2022-08-19T13:07:57.226Z,36.32
2022-08-19T13:11:26.750Z,36.43
2022-08-19T13:14:53.448Z,36.33
2022-08-19T13:18:20.893Z,36.44
2022-08-19T13:21:51.743Z,36.53
2022-08-19T13:25:28.071Z,36.56
2022-08-19T13:29:12.162Z,36.69
2022-08-19T13:32:56.325Z,36.78
2022-08-19T13:36:23.065Z,36.84
2022-08-19T13:39:49.846Z,36.85
2022-08-19T13:43:22.879Z,36.90
2022-08-19T13:46:54.247Z,37.03
2022-08-19T13:50:24.209Z,36.91
2022-08-19T13:54:03.163Z,36.88
2022-08-19T13:57:31.550Z,36.77
2022-08-19T14:01:00.405Z,36.51
2022-08-19T14:04:27.767Z,36.55
2022-08-19T14:07:55.061Z,36.54
2022-08-19T14:11:24.243Z,36.36
2022-08-19T14:14:51.153Z,36.38
2022-08-19T14:18:18.818Z,36.44
2022-08-19T14:21:45.922Z,36.36
2022-08-19T14:25:16.573Z,36.51
2022-08-19T14:28:44.182Z,36.69
2022-08-19T14:32:16.759Z,36.78
2022-08-19T14:35:46.048Z,36.91
2022-08-19T14:39:13.167Z,37.05
2022-08-19T14:42:40.713Z,36.98
2022-08-19T14:46:10.550Z,36.78
2022-08-19T14:49:43.106Z,36.53
2022-08-19T14:53:13.655Z,36.36
2022-08-19T14:56:44.587Z,36.26
2022-08-19T15:00:15.199Z,36.14
2022-08-19T15:03:42.789Z,36.04
2022-08-19T15:07:10.506Z,35.98
2022-08-19T15:10:37.469Z,35.97
2022-08-19T15:14:04.309Z,35.88
2022-08-19T15:17:32.388Z,35.77
2022-08-19T15:21:13.786Z,35.68
2022-08-19T15:24:47.810Z,35.53
2022-08-19T15:28:17.581Z,35.36
2022-08-19T15:31:47.897Z,35.28
2022-08-19T15:35:16.411Z,35.18
2022-08-19T15:38:46.077Z,35.04
2022-08-19T15:42:13.060Z,34.87
2022-08-19T15:45:55.329Z,34.71
2022-08-19T15:49:23.045Z,34.53
2022-08-19T15:52:52.366Z,34.41
2022-08-19T15:57:01.167Z,34.29
2022-08-19T16:00:45.943Z,34.11
2022-08-19T16:04:37.820Z,33.98
2022-08-19T16:08:04.724Z,33.90
2022-08-19T16:11:39.292Z,33.83
2022-08-19T16:15:08.252Z,33.74
2022-08-19T16:18:41.109Z,33.67
2022-08-19T16:22:09.254Z,33.56
2022-08-19T16:25:36.767Z,33.47
2022-08-19T16:29:09.105Z,33.40
2022-08-19T16:32:43.874Z,33.31
2022-08-19T16:36:14.392Z,33.20
2022-08-19T16:39:44.362Z,33.08
2022-08-19T16:43:13.092Z,32.96
2022-08-19T16:46:42.460Z,32.84
2022-08-19T16:50:12.572Z,32.72
2022-08-19T16:53:41.073Z,32.58
2022-08-19T16:57:09.147Z,32.44
2022-08-19T17:00:40.307Z,32.29
2022-08-19T17:04:08.567Z,32.13
2022-08-19T17:07:37.875Z,31.94
2022-08-19T17:11:18.074Z,31.76
2022-08-19T17:14:48.260Z,31.56
2022-08-19T17:18:21.802Z,31.40
2022-08-19T17:21:49.279Z,31.23
2022-08-19T17:25:17.153Z,31.08
2022-08-19T17:28:45.138Z,30.94
2022-08-19T17:32:12.858Z,30.82
2022-08-19T17:35:44.114Z,30.71
2022-08-19T17:39:15.185Z,30.60
2022-08-19T17:42:44.380Z,30.47
2022-08-19T17:46:25.656Z,30.37
2022-08-19T17:49:54.258Z,30.25
2022-08-19T17:53:22.281Z,30.14
2022-08-19T17:56:50.025Z,30.03
2022-08-19T18:00:19.856Z,29.93
2022-08-19T18:03:50.414Z,29.83
2022-08-19T18:07:21.804Z,29.72
2022-08-19T18:10:50.264Z,29.60
2022-08-19T18:14:19.041Z,29.50
2022-08-19T18:17:51.337Z,29.40
2022-08-19T18:21:19.232Z,29.31
2022-08-19T18:24:46.513Z,29.22
2022-08-19T18:28:14.957Z,29.11
2022-08-19T18:31:44.846Z,29.02
2022-08-19T18:35:20.538Z,28.94
2022-08-19T18:39:06.924Z,28.86
2022-08-19T18:42:53.673Z,28.79
2022-08-19T18:46:41.904Z,28.70
2022-08-19T18:50:13.889Z,28.63
2022-08-19T18:53:46.621Z,28.57
2022-08-19T18:57:13.432Z,28.52
2022-08-19T19:00:46.104Z,28.44
2022-08-19T19:04:15.616Z,28.40
2022-08-19T19:07:44.419Z,28.34
2022-08-19T19:11:23.810Z,28.29
2022-08-19T19:14:53.475Z,28.25
2022-08-19T19:18:23.577Z,28.19
2022-08-19T19:22:00.154Z,28.13
2022-08-19T19:25:49.833Z,28.07
2022-08-19T19:29:23.347Z,27.97
2022-08-19T19:32:51.818Z,27.89
2022-08-19T19:36:20.497Z,27.85
2022-08-19T19:39:51.852Z,27.80
2022-08-19T19:43:23.553Z,27.75
2022-08-19T19:47:00.475Z,27.69
2022-08-19T19:50:30.623Z,27.64
2022-08-19T19:54:02.396Z,27.60
2022-08-19T19:57:32.021Z,27.56
2022-08-19T20:01:09.548Z,27.53
2022-08-19T20:04:41.989Z,27.47
2022-08-19T20:08:27.402Z,27.43
2022-08-19T20:11:58.293Z,27.37
2022-08-19T20:15:30.490Z,27.34
2022-08-19T20:18:59.235Z,27.31
2022-08-19T20:22:29.682Z,27.27
2022-08-19T20:26:03.204Z,27.21
2022-08-19T20:29:38.882Z,27.16
2022-08-19T20:33:10.651Z,27.13
2022-08-19T20:36:45.336Z,27.09
2022-08-19T20:40:16.012Z,27.05
2022-08-19T20:43:48.736Z,27.01
2022-08-19T20:47:21.260Z,26.95
2022-08-19T20:50:49.175Z,26.93
2022-08-19T20:54:21.269Z,26.91
2022-08-19T20:57:51.244Z,26.90
2022-08-19T21:01:20.600Z,26.90
2022-08-19T21:04:53.248Z,26.90
2022-08-19T21:08:30.452Z,26.90
2022-08-19T21:11:59.419Z,26.91
2022-08-19T21:15:27.555Z,26.89
2022-08-19T21:19:01.414Z,26.87
2022-08-19T21:22:34.822Z,26.85
2022-08-19T21:26:03.280Z,26.82
2022-08-19T21:29:32.440Z,26.75
2022-08-19T21:33:01.319Z,26.71
2022-08-19T21:36:28.677Z,26.66
2022-08-19T21:40:01.909Z,26.64
2022-08-19T21:43:33.791Z,26.61
2022-08-19T21:47:10.625Z,26.58
2022-08-19T21:50:40.136Z,26.56
2022-08-19T21:54:14.073Z,26.54
2022-08-19T21:57:43.357Z,26.53
2022-08-19T22:01:13.271Z,26.53
2022-08-19T22:04:45.401Z,26.52
2022-08-19T22:08:20.537Z,26.56
2022-08-19T22:11:50.934Z,26.59
2022-08-19T22:15:21.965Z,26.61
2022-08-19T22:18:51.110Z,26.60
2022-08-19T22:22:24.355Z,26.61
2022-08-19T22:25:54.256Z,26.58
2022-08-19T22:29:33.727Z,26.56
2022-08-19T22:33:21.785Z,26.50
2022-08-19T22:36:53.010Z,26.42
2022-08-19T22:40:22.999Z,26.33
2022-08-19T22:43:54.387Z,26.25
2022-08-19T22:47:32.110Z,26.17
2022-08-19T22:51:22.838Z,26.09
2022-08-19T22:55:02.359Z,26.00
2022-08-19T22:58:31.812Z,25.94
2022-08-19T23:02:05.938Z,25.91
2022-08-19T23:05:37.160Z,25.89
2022-08-19T23:09:11.188Z,25.89
2022-08-19T23:12:48.030Z,25.89
2022-08-19T23:16:21.746Z,25.87
2022-08-19T23:19:51.156Z,25.84
2022-08-19T23:23:25.261Z,25.81
2022-08-19T23:27:12.022Z,25.78
2022-08-19T23:30:43.900Z,25.76
2022-08-19T23:34:16.115Z,25.75
2022-08-19T23:37:45.099Z,25.72
2022-08-19T23:41:15.233Z,25.69
2022-08-19T23:44:51.336Z,25.64
2022-08-19T23:48:20.102Z,25.62
2022-08-19T23:51:47.478Z,25.56
2022-08-19T23:55:16.498Z,25.52
2022-08-19T23:58:44.203Z,25.49
